createdAt,value
2019-02-15T00:00:07.215Z,8.07
2019-02-15T00:02:35.663Z,9.83
2019-02-15T00:05:04.917Z,8.33
2019-02-15T00:07:33.345Z,6.60
2019-02-15T00:10:01.798Z,15.03
2019-02-15T00:12:30.231Z,8.20
2019-02-15T00:14:58.677Z,8.53
2019-02-15T00:17:31.169Z,8.50
2019-02-15T00:20:01.268Z,8.70
2019-02-15T00:22:29.689Z,6.27
2019-02-15T00:24:58.217Z,7.63
2019-02-15T00:27:26.709Z,6.63
2019-02-15T00:29:55.166Z,10.27
2019-02-15T00:32:23.614Z,9.67
2019-02-15T00:34:52.062Z,8.00
2019-02-15T00:37:20.670Z,7.57
2019-02-15T00:39:49.113Z,7.07
2019-02-15T00:42:17.625Z,7.20
2019-02-15T00:44:46.106Z,6.23
2019-02-15T00:47:19.302Z,6.53
2019-02-15T00:49:49.538Z,8.30
2019-02-15T00:52:25.296Z,8.33
2019-02-15T00:54:55.390Z,8.83
2019-02-15T00:57:25.484Z,7.73
2019-02-15T00:59:55.554Z,7.67
2019-02-15T01:02:25.641Z,8.63
2019-02-15T01:05:04.550Z,8.03
2019-02-15T01:07:40.512Z,10.00
2019-02-15T01:10:28.279Z,6.73
2019-02-15T01:12:58.369Z,6.37
2019-02-15T01:15:26.802Z,7.47
2019-02-15T01:17:55.239Z,6.57
2019-02-15T01:20:23.697Z,9.27
2019-02-15T01:22:52.141Z,8.23
2019-02-15T01:25:20.723Z,10.60
2019-02-15T01:27:59.863Z,6.80
2019-02-15T01:30:46.071Z,9.23
2019-02-15T01:33:19.199Z,6.93
2019-02-15T01:35:58.257Z,6.43
2019-02-15T01:38:28.419Z,7.70
2019-02-15T01:40:58.507Z,6.87
2019-02-15T01:43:40.110Z,6.67
2019-02-15T01:46:18.472Z,8.87
2019-02-15T01:48:46.935Z,10.33
2019-02-15T01:51:15.439Z,8.23
2019-02-15T01:53:43.873Z,12.67
2019-02-15T01:56:12.321Z,18.43
2019-02-15T01:58:40.777Z,20.67
2019-02-15T02:01:09.365Z,18.57
2019-02-15T02:03:37.801Z,26.17
2019-02-15T02:06:06.263Z,45.20
2019-02-15T02:08:34.703Z,44.60
2019-02-15T02:11:03.153Z,35.97
2019-02-15T02:13:31.669Z,44.97
2019-02-15T02:16:00.198Z,36.87
2019-02-15T02:18:28.654Z,32.17
2019-02-15T02:20:57.794Z,35.57
2019-02-15T02:23:26.236Z,28.70
2019-02-15T02:25:54.764Z,28.90
2019-02-15T02:28:23.211Z,25.80
2019-02-15T02:30:51.661Z,26.67
2019-02-15T02:33:20.114Z,26.50
2019-02-15T02:35:48.647Z,27.73
2019-02-15T02:38:17.063Z,19.03
2019-02-15T02:40:45.509Z,16.03
2019-02-15T02:43:13.968Z,12.93
2019-02-15T02:45:42.420Z,16.20
2019-02-15T02:48:10.867Z,13.80
2019-02-15T02:50:39.307Z,12.00
2019-02-15T02:53:07.775Z,11.10
2019-02-15T02:55:36.207Z,12.07
2019-02-15T02:58:04.722Z,8.67
2019-02-15T03:00:33.933Z,10.90
2019-02-15T03:03:02.506Z,14.63
2019-02-15T03:05:30.937Z,13.00
2019-02-15T03:07:59.406Z,9.30
2019-02-15T03:10:27.842Z,10.53
2019-02-15T03:12:56.301Z,9.93
2019-02-15T03:15:24.739Z,13.33
2019-02-15T03:17:53.207Z,7.60
2019-02-15T03:20:30.871Z,7.83
2019-02-15T03:22:51.816Z,7.87
2019-02-15T03:25:20.247Z,7.10
2019-02-15T03:27:48.702Z,8.87
2019-02-15T03:30:17.152Z,8.60
2019-02-15T03:32:45.667Z,8.00
2019-02-15T03:35:14.104Z,7.77
2019-02-15T03:38:02.264Z,6.40
2019-02-15T03:40:32.416Z,7.87
2019-02-15T03:43:00.853Z,7.53
2019-02-15T03:45:29.291Z,8.27
2019-02-15T03:47:57.723Z,8.53
2019-02-15T03:50:26.181Z,10.20
2019-02-15T03:52:54.611Z,8.67
2019-02-15T03:55:23.135Z,8.57
2019-02-15T03:57:51.637Z,6.47
2019-02-15T04:00:20.079Z,8.13
2019-02-15T04:02:48.509Z,7.37
2019-02-15T04:05:16.965Z,6.50
2019-02-15T04:07:45.409Z,8.30
2019-02-15T04:10:13.930Z,9.23
2019-02-15T04:12:42.427Z,6.53
2019-02-15T04:15:10.887Z,5.77
2019-02-15T04:17:39.327Z,7.53
2019-02-15T04:20:09.905Z,7.37
2019-02-15T04:22:38.337Z,11.90
2019-02-15T04:25:07.037Z,8.23
2019-02-15T04:27:35.469Z,10.33
2019-02-15T04:30:04.770Z,7.27
2019-02-15T04:32:33.197Z,8.80
2019-02-15T04:35:02.022Z,8.27
2019-02-15T04:37:30.449Z,7.23
2019-02-15T04:39:58.970Z,9.90
2019-02-15T04:42:27.405Z,8.77
2019-02-15T04:44:55.861Z,5.60
2019-02-15T04:47:24.300Z,7.53
2019-02-15T04:49:52.768Z,19.60
2019-02-15T04:52:21.200Z,10.47
2019-02-15T04:54:49.646Z,10.03
2019-02-15T04:57:18.078Z,18.23
2019-02-15T04:59:46.518Z,9.13
2019-02-15T05:02:14.959Z,8.03
2019-02-15T05:04:43.408Z,8.83
2019-02-15T05:07:11.838Z,10.00
2019-02-15T05:09:40.291Z,7.33
2019-02-15T05:12:08.726Z,6.70
2019-02-15T05:14:37.191Z,7.33
2019-02-15T05:17:05.693Z,7.60
2019-02-15T05:19:34.202Z,9.43
2019-02-15T05:22:02.650Z,9.93
2019-02-15T05:24:31.174Z,5.80
2019-02-15T05:26:59.709Z,9.53
2019-02-15T05:29:28.147Z,7.87
2019-02-15T05:31:56.595Z,6.57
2019-02-15T05:34:25.021Z,6.33
2019-02-15T05:36:54.145Z,7.57
2019-02-15T05:39:22.577Z,13.17
2019-02-15T05:41:51.026Z,9.50
2019-02-15T05:44:19.462Z,7.87
2019-02-15T05:46:47.919Z,9.00
2019-02-15T05:49:16.449Z,8.53
2019-02-15T05:51:47.288Z,7.80
2019-02-15T05:54:15.078Z,8.03
2019-02-15T05:56:43.538Z,8.73
2019-02-15T05:59:11.964Z,8.73
2019-02-15T06:01:40.461Z,11.87
2019-02-15T06:04:08.931Z,7.47
2019-02-15T06:06:37.390Z,7.17
2019-02-15T06:09:06.509Z,8.40
2019-02-15T06:11:35.046Z,7.00
2019-02-15T06:14:03.465Z,7.30
2019-02-15T06:16:31.974Z,8.07
2019-02-15T06:19:00.558Z,9.63
2019-02-15T06:21:29.058Z,7.93
2019-02-15T06:23:57.529Z,6.73
2019-02-15T06:26:26.694Z,7.20
2019-02-15T06:28:55.155Z,8.10
2019-02-15T06:31:23.587Z,7.73
2019-02-15T06:33:52.054Z,10.17
2019-02-15T06:36:20.482Z,8.20
2019-02-15T06:38:49.131Z,9.87
2019-02-15T06:41:17.570Z,6.57
2019-02-15T06:43:46.028Z,8.03
2019-02-15T06:46:14.458Z,6.20
2019-02-15T06:48:42.916Z,10.17
2019-02-15T06:51:11.354Z,8.47
2019-02-15T06:53:39.804Z,7.60
2019-02-15T06:56:08.517Z,8.17
2019-02-15T06:58:45.491Z,9.27
2019-02-15T07:01:16.021Z,8.47
2019-02-15T07:03:46.104Z,7.23
2019-02-15T07:06:14.535Z,5.77
2019-02-15T07:08:42.986Z,6.80
2019-02-15T07:11:11.410Z,6.37
2019-02-15T07:13:39.861Z,8.30
2019-02-15T07:16:08.459Z,5.90
2019-02-15T07:18:36.918Z,8.77
2019-02-15T07:21:05.351Z,7.70
2019-02-15T07:23:33.790Z,11.13
2019-02-15T07:26:02.244Z,5.60
2019-02-15T07:28:30.678Z,8.10
2019-02-15T07:30:59.126Z,7.37
2019-02-15T07:33:27.558Z,5.70
2019-02-15T07:35:56.067Z,5.53
2019-02-15T07:38:24.588Z,10.53
2019-02-15T07:40:53.040Z,6.67
2019-02-15T07:43:21.483Z,5.53
2019-02-15T07:45:49.990Z,8.23
2019-02-15T07:48:18.449Z,7.40
2019-02-15T07:50:46.903Z,6.67
2019-02-15T07:53:15.332Z,5.70
2019-02-15T07:55:43.768Z,6.30
2019-02-15T07:58:12.205Z,6.70
2019-02-15T08:00:40.637Z,6.33
2019-02-15T08:03:09.262Z,6.90
2019-02-15T08:05:37.711Z,5.43
2019-02-15T08:08:06.144Z,5.90
2019-02-15T08:10:34.587Z,6.00
2019-02-15T08:13:03.023Z,6.87
2019-02-15T08:15:36.127Z,4.83
2019-02-15T08:18:01.630Z,5.43
2019-02-15T08:20:30.063Z,6.47
2019-02-15T08:22:58.486Z,5.63
2019-02-15T08:25:26.941Z,5.10
2019-02-15T08:27:55.392Z,7.43
2019-02-15T08:30:23.914Z,5.10
2019-02-15T08:32:52.359Z,11.60
2019-02-15T08:35:20.905Z,7.23
2019-02-15T08:37:49.512Z,6.67
2019-02-15T08:40:19.146Z,9.07
2019-02-15T08:42:47.604Z,8.03
2019-02-15T08:45:18.230Z,7.53
2019-02-15T08:47:46.754Z,8.30
2019-02-15T08:50:15.190Z,5.20
2019-02-15T08:52:43.922Z,6.50
2019-02-15T08:55:12.725Z,6.47
2019-02-15T08:57:44.392Z,10.37
2019-02-15T09:00:15.448Z,7.30
2019-02-15T09:02:44.472Z,5.47
2019-02-15T09:05:13.134Z,9.10
2019-02-15T09:07:41.594Z,7.17
2019-02-15T09:10:12.426Z,7.87
2019-02-15T09:12:41.504Z,6.13
2019-02-15T09:15:13.014Z,10.83
2019-02-15T09:17:47.761Z,9.37
2019-02-15T09:20:16.202Z,8.00
2019-02-15T09:22:47.050Z,7.93
2019-02-15T09:25:17.010Z,7.97
2019-02-15T09:27:47.178Z,6.67
2019-02-15T09:30:15.750Z,10.07
2019-02-15T09:32:44.218Z,6.33
2019-02-15T09:35:12.718Z,6.67
2019-02-15T09:37:41.167Z,8.50
2019-02-15T09:40:10.352Z,6.13
2019-02-15T09:42:38.807Z,7.40
2019-02-15T09:45:11.854Z,8.23
2019-02-15T09:47:40.403Z,8.40
2019-02-15T09:50:12.142Z,17.83
2019-02-15T09:52:40.530Z,10.33
2019-02-15T09:55:09.044Z,8.40
2019-02-15T09:57:37.493Z,8.80
2019-02-15T10:00:08.307Z,8.60
2019-02-15T10:02:36.765Z,11.17
2019-02-15T10:05:06.742Z,8.53
2019-02-15T10:07:35.211Z,11.07
2019-02-15T10:10:04.016Z,8.07
2019-02-15T10:12:32.486Z,8.20
2019-02-15T10:15:00.935Z,5.40
2019-02-15T10:17:29.396Z,6.57
2019-02-15T10:19:57.965Z,5.87
2019-02-15T10:22:26.645Z,6.07
2019-02-15T10:24:55.129Z,5.13
2019-02-15T10:27:23.597Z,7.13
2019-02-15T10:29:52.037Z,7.57
2019-02-15T10:32:20.469Z,8.10
2019-02-15T10:34:48.915Z,5.37
2019-02-15T10:37:17.361Z,7.13
2019-02-15T10:39:45.809Z,8.83
2019-02-15T10:42:14.314Z,9.60
2019-02-15T10:44:42.773Z,7.43
2019-02-15T10:47:14.207Z,6.27
2019-02-15T10:49:41.553Z,7.93
2019-02-15T10:52:10.067Z,6.03
2019-02-15T10:54:38.516Z,6.47
2019-02-15T10:57:07.035Z,4.87
2019-02-15T10:59:35.576Z,6.50
2019-02-15T11:02:04.059Z,6.17
2019-02-15T11:04:32.646Z,11.67
2019-02-15T11:07:01.085Z,5.67
2019-02-15T11:09:29.556Z,7.17
2019-02-15T11:11:57.998Z,4.50
2019-02-15T11:14:26.447Z,4.63
2019-02-15T11:16:54.881Z,5.17
2019-02-15T11:19:23.562Z,11.03
2019-02-15T11:21:52.002Z,5.17
2019-02-15T11:24:20.706Z,9.33
2019-02-15T11:26:49.230Z,5.97
2019-02-15T11:29:17.668Z,6.13
2019-02-15T11:31:46.175Z,6.87
2019-02-15T11:34:14.764Z,4.07
2019-02-15T11:36:43.535Z,5.20
2019-02-15T11:39:12.050Z,6.47
2019-02-15T11:41:40.545Z,6.13
2019-02-15T11:44:09.057Z,3.73
2019-02-15T11:46:37.568Z,4.47
2019-02-15T11:49:06.058Z,4.33
2019-02-15T11:51:34.560Z,6.10
2019-02-15T11:54:03.270Z,4.43
2019-02-15T11:56:31.871Z,3.80
2019-02-15T11:59:00.313Z,5.80
2019-02-15T12:01:28.762Z,4.77
2019-02-15T12:03:57.197Z,6.33
2019-02-15T12:06:25.644Z,4.27
2019-02-15T12:08:54.091Z,6.70
2019-02-15T12:11:22.541Z,7.90
2019-02-15T12:13:50.969Z,6.10
2019-02-15T12:16:19.431Z,6.67
2019-02-15T12:18:48.029Z,6.43
2019-02-15T12:21:16.507Z,5.93
2019-02-15T12:23:45.007Z,7.27
2019-02-15T12:26:13.503Z,5.47
2019-02-15T12:28:41.959Z,5.00
2019-02-15T12:31:10.428Z,4.23
2019-02-15T12:33:38.858Z,10.00
2019-02-15T12:36:07.511Z,5.53
2019-02-15T12:38:36.002Z,5.47
2019-02-15T12:41:04.466Z,5.30
2019-02-15T12:43:32.925Z,4.90
2019-02-15T12:46:01.494Z,5.27
2019-02-15T12:48:30.101Z,5.43
2019-02-15T12:50:58.622Z,3.83
2019-02-15T12:53:27.047Z,4.03
2019-02-15T12:55:56.234Z,6.40
2019-02-15T12:58:24.679Z,5.63
2019-02-15T13:00:53.230Z,5.43
2019-02-15T13:03:21.749Z,3.00
2019-02-15T13:05:50.205Z,5.17
2019-02-15T13:08:18.713Z,4.63
2019-02-15T13:10:47.323Z,7.40
2019-02-15T13:13:15.763Z,3.23
2019-02-15T13:15:45.102Z,6.70
2019-02-15T13:18:13.666Z,4.23
2019-02-15T13:20:42.504Z,3.60
2019-02-15T13:23:10.963Z,3.50
2019-02-15T13:25:39.418Z,5.23
2019-02-15T13:28:07.875Z,2.90
2019-02-15T13:30:36.584Z,4.93
2019-02-15T13:33:05.114Z,5.23
2019-02-15T13:35:33.538Z,4.00
2019-02-15T13:38:01.988Z,2.77
2019-02-15T13:40:30.422Z,4.93
2019-02-15T13:42:59.153Z,3.97
2019-02-15T13:45:29.467Z,3.27
2019-02-15T13:47:57.863Z,4.00
2019-02-15T13:50:26.299Z,3.40
2019-02-15T13:52:54.751Z,2.23
2019-02-15T13:55:23.200Z,4.53
2019-02-15T13:57:52.005Z,6.07
2019-02-15T14:00:20.472Z,4.37
2019-02-15T14:02:48.916Z,4.20
2019-02-15T14:05:17.370Z,2.50
2019-02-15T14:07:45.832Z,2.60
2019-02-15T14:10:15.021Z,4.20
2019-02-15T14:12:43.485Z,2.77
2019-02-15T14:15:12.568Z,1.33
2019-02-15T14:17:44.940Z,3.80
2019-02-15T14:20:14.237Z,2.60
2019-02-15T14:22:42.699Z,3.00
2019-02-15T14:25:12.292Z,2.53
2019-02-15T14:27:40.824Z,1.97
2019-02-15T14:30:16.232Z,1.40
2019-02-15T14:32:44.692Z,2.40
2019-02-15T14:35:14.167Z,2.40
2019-02-15T14:37:42.700Z,1.50
2019-02-15T14:40:12.189Z,2.93
2019-02-15T14:42:40.693Z,3.03
2019-02-15T14:45:12.786Z,3.47
2019-02-15T14:47:41.250Z,3.40
2019-02-15T14:50:10.734Z,2.73
2019-02-15T14:52:39.254Z,3.50
2019-02-15T14:55:09.137Z,3.40
2019-02-15T14:57:37.678Z,2.20
2019-02-15T15:00:11.854Z,4.57
2019-02-15T15:02:40.290Z,3.43
2019-02-15T15:05:10.091Z,3.07
2019-02-15T15:07:38.522Z,3.47
2019-02-15T15:10:08.820Z,3.23
2019-02-15T15:12:37.259Z,3.60
2019-02-15T15:15:08.784Z,4.90
2019-02-15T15:17:37.226Z,5.50
2019-02-15T15:20:08.620Z,3.93
2019-02-15T15:22:37.071Z,3.97
2019-02-15T15:25:08.100Z,2.00
2019-02-15T15:27:36.562Z,2.07
2019-02-15T15:30:07.150Z,3.90
2019-02-15T15:32:35.623Z,2.87
2019-02-15T15:35:04.700Z,2.70
2019-02-15T15:37:33.149Z,2.30
2019-02-15T15:40:01.602Z,1.60
2019-02-15T15:42:30.119Z,2.57
2019-02-15T15:44:58.603Z,1.70
2019-02-15T15:47:27.054Z,4.67
2019-02-15T15:49:55.507Z,1.43
2019-02-15T15:52:24.010Z,2.60
2019-02-15T15:54:52.498Z,1.57
2019-02-15T15:57:20.924Z,2.40
2019-02-15T15:59:49.377Z,1.07
2019-02-15T16:02:18.606Z,1.23
2019-02-15T16:04:47.153Z,5.80
2019-02-15T16:07:15.604Z,1.23
2019-02-15T16:09:44.189Z,2.93
2019-02-15T16:12:12.692Z,7.00
2019-02-15T16:14:41.176Z,5.73
2019-02-15T16:17:09.699Z,6.40
2019-02-15T16:19:40.547Z,5.83
2019-02-15T16:22:08.494Z,4.87
2019-02-15T16:24:36.956Z,8.50
2019-02-15T16:27:05.407Z,5.10
2019-02-15T16:29:33.872Z,5.03
2019-02-15T16:32:02.314Z,8.17
2019-02-15T16:34:30.975Z,5.67
2019-02-15T16:36:59.430Z,4.97
2019-02-15T16:39:27.943Z,7.83
2019-02-15T16:41:56.438Z,31.80
2019-02-15T16:44:24.925Z,17.63
2019-02-15T16:46:53.461Z,11.03
2019-02-15T16:49:21.904Z,7.80
2019-02-15T16:51:50.372Z,6.70
2019-02-15T16:54:18.823Z,5.30
2019-02-15T16:56:47.282Z,4.50
2019-02-15T16:59:15.725Z,5.10
2019-02-15T17:01:44.346Z,8.53
2019-02-15T17:04:12.811Z,8.17
2019-02-15T17:06:41.365Z,11.30
2019-02-15T17:09:16.518Z,11.67
2019-02-15T17:11:45.044Z,5.63
2019-02-15T17:14:14.072Z,7.33
2019-02-15T17:16:42.598Z,5.70
2019-02-15T17:19:11.122Z,5.73
2019-02-15T17:21:39.653Z,7.53
2019-02-15T17:24:08.167Z,8.77
2019-02-15T17:26:36.736Z,8.37
2019-02-15T17:29:05.344Z,8.40
2019-02-15T17:31:33.803Z,6.40
2019-02-15T17:34:02.246Z,5.60
2019-02-15T17:36:30.759Z,6.70
2019-02-15T17:38:59.336Z,9.10
2019-02-15T17:41:27.846Z,8.83
2019-02-15T17:43:56.377Z,7.97
2019-02-15T17:46:24.840Z,8.57
2019-02-15T17:49:00.489Z,6.37
2019-02-15T17:51:23.531Z,4.83
2019-02-15T17:53:51.975Z,5.90
2019-02-15T17:56:20.522Z,4.87
2019-02-15T17:58:49.143Z,7.30
2019-02-15T18:01:17.757Z,8.17
2019-02-15T18:03:46.231Z,7.17
2019-02-15T18:06:15.082Z,8.07
2019-02-15T18:08:43.555Z,8.67
2019-02-15T18:11:11.996Z,9.40
2019-02-15T18:13:40.497Z,10.00
2019-02-15T18:16:08.947Z,9.40
2019-02-15T18:18:37.399Z,7.10
2019-02-15T18:21:05.842Z,12.13
2019-02-15T18:23:34.291Z,8.23
2019-02-15T18:26:02.760Z,7.60
2019-02-15T18:28:31.224Z,10.70
2019-02-15T18:30:59.682Z,10.80
2019-02-15T18:33:28.152Z,14.17
2019-02-15T18:35:56.604Z,14.37
2019-02-15T18:38:25.063Z,14.70
2019-02-15T18:40:53.518Z,15.70
2019-02-15T18:43:21.983Z,14.17
2019-02-15T18:45:50.426Z,14.27
2019-02-15T18:48:19.419Z,15.70
2019-02-15T18:50:48.140Z,13.80
2019-02-15T18:53:16.633Z,16.53
2019-02-15T18:55:45.105Z,19.63
2019-02-15T18:58:13.598Z,20.27
2019-02-15T19:00:42.078Z,21.23
2019-02-15T19:03:10.617Z,19.23
2019-02-15T19:05:39.063Z,17.87
2019-02-15T19:08:07.552Z,17.10
2019-02-15T19:10:35.998Z,50.63
2019-02-15T19:13:04.457Z,101.90
2019-02-15T19:15:32.913Z,74.90
2019-02-15T19:18:01.410Z,58.47
2019-02-15T19:20:30.572Z,51.63
2019-02-15T19:22:59.148Z,32.67
2019-02-15T19:25:27.742Z,26.47
2019-02-15T19:27:56.262Z,20.60
2019-02-15T19:30:27.887Z,21.97
2019-02-15T19:32:56.397Z,25.30
2019-02-15T19:35:24.887Z,27.97
2019-02-15T19:37:53.379Z,22.33
2019-02-15T19:40:22.038Z,22.83
2019-02-15T19:42:53.502Z,21.80
2019-02-15T19:45:22.277Z,22.60
2019-02-15T19:47:50.856Z,27.03
2019-02-15T19:50:19.416Z,23.97
2019-02-15T19:52:48.788Z,26.97
2019-02-15T19:55:17.337Z,23.37
2019-02-15T19:57:45.820Z,22.93
2019-02-15T20:00:18.935Z,18.17
2019-02-15T20:02:47.717Z,22.50
2019-02-15T20:05:16.335Z,22.47
2019-02-15T20:07:44.859Z,23.03
2019-02-15T20:10:23.737Z,21.23
2019-02-15T20:12:52.374Z,23.87
2019-02-15T20:15:20.946Z,23.37
2019-02-15T20:17:49.528Z,19.13
2019-02-15T20:20:18.205Z,21.77
2019-02-15T20:22:46.880Z,20.20
2019-02-15T20:25:15.335Z,22.87
2019-02-15T20:27:43.881Z,23.67
2019-02-15T20:30:15.311Z,22.50
2019-02-15T20:32:43.835Z,21.60
2019-02-15T20:35:13.638Z,19.00
2019-02-15T20:37:42.280Z,29.73
2019-02-15T20:40:12.074Z,19.17
2019-02-15T20:42:40.517Z,19.30
2019-02-15T20:45:18.177Z,21.60
2019-02-15T20:47:46.619Z,19.57
2019-02-15T20:50:15.427Z,17.47
2019-02-15T20:52:43.870Z,18.97
2019-02-15T20:55:14.481Z,21.20
2019-02-15T20:57:43.002Z,18.93
2019-02-15T21:00:26.388Z,19.70
2019-02-15T21:02:54.835Z,20.40
2019-02-15T21:05:23.298Z,17.93
2019-02-15T21:07:51.751Z,17.73
2019-02-15T21:10:20.277Z,22.77
2019-02-15T21:12:48.758Z,21.67
2019-02-15T21:15:17.246Z,19.77
2019-02-15T21:17:45.715Z,23.23
2019-02-15T21:20:15.079Z,18.63
2019-02-15T21:22:43.535Z,21.13
2019-02-15T21:25:16.303Z,17.67
2019-02-15T21:27:44.767Z,20.80
2019-02-15T21:30:15.048Z,16.80
2019-02-15T21:32:43.589Z,16.80
2019-02-15T21:35:12.101Z,19.67
2019-02-15T21:37:40.635Z,18.57
2019-02-15T21:40:14.607Z,13.77
2019-02-15T21:42:43.128Z,18.37
2019-02-15T21:45:11.917Z,14.03
2019-02-15T21:47:40.429Z,12.37
2019-02-15T21:50:16.726Z,13.63
2019-02-15T21:52:44.242Z,15.53
2019-02-15T21:55:12.667Z,11.80
2019-02-15T21:57:41.304Z,12.50
2019-02-15T22:00:15.155Z,12.47
2019-02-15T22:02:43.754Z,12.27
2019-02-15T22:05:12.397Z,15.23
2019-02-15T22:07:40.879Z,14.40
2019-02-15T22:10:10.089Z,12.03
2019-02-15T22:12:38.615Z,13.60
2019-02-15T22:15:12.644Z,10.13
2019-02-15T22:17:41.241Z,12.33
2019-02-15T22:20:25.936Z,13.07
2019-02-15T22:22:46.852Z,12.47
2019-02-15T22:25:15.297Z,10.50
2019-02-15T22:27:43.769Z,11.33
2019-02-15T22:30:16.085Z,10.20
2019-02-15T22:32:44.540Z,10.23
2019-02-15T22:35:13.045Z,10.57
2019-02-15T22:37:41.499Z,9.30
2019-02-15T22:40:27.191Z,9.67
2019-02-15T22:42:56.284Z,11.97
2019-02-15T22:45:24.732Z,8.47
2019-02-15T22:47:53.199Z,9.47
2019-02-15T22:50:21.635Z,10.47
2019-02-15T22:52:50.097Z,10.47
2019-02-15T22:55:18.534Z,9.43
2019-02-15T22:57:46.978Z,7.67
2019-02-15T23:00:21.544Z,9.00
2019-02-15T23:02:50.205Z,9.37
2019-02-15T23:05:18.666Z,11.13
2019-02-15T23:07:47.110Z,8.23
2019-02-15T23:10:15.566Z,9.33
2019-02-15T23:12:44.062Z,10.50
2019-02-15T23:15:12.586Z,8.63
2019-02-15T23:17:41.029Z,10.33
2019-02-15T23:20:09.626Z,7.40
2019-02-15T23:22:38.060Z,9.23
2019-02-15T23:25:07.648Z,8.37
2019-02-15T23:27:36.088Z,8.37
2019-02-15T23:30:06.376Z,7.07
2019-02-15T23:32:34.849Z,6.83
2019-02-15T23:35:03.694Z,7.83
2019-02-15T23:37:32.136Z,9.37
2019-02-15T23:40:00.582Z,9.00
2019-02-15T23:42:29.022Z,8.03
2019-02-15T23:44:57.468Z,6.97
2019-02-15T23:47:25.904Z,10.63
2019-02-15T23:49:54.361Z,7.00
2019-02-15T23:52:22.781Z,6.77
2019-02-15T23:54:51.228Z,9.60
2019-02-15T23:57:19.658Z,7.63
2019-02-15T23:59:48.114Z,7.20
